Jasper, AL (35504)

8:14 AM CDT on August 25, 2016 (GMT -0500)
Ashwood Drive 35504 | | Change Station

Elev 505 ft 33.86 °N, 87.23 °W | Updated 3 minutes ago

Clear
Clear
77.7 °F
Feels Like 80 °F
N
1.0
Wind Variable Wind from South
Gusts 1.0 mph

Today
High -- | Low -- °F
--% Chance of Precip.
Yesterday
High -- | Low -- °F
Precip. -- in
Pressure 30.18 in
Visibility -9999.0 miles
Clouds Clear
Heat Index 80 °F
Dew Point 76 °F
Humidity 95%
Rainfall 0.00 in
Snow Depth Not available.
6:17 AM 7:22 PM
Last Quarter, 46% visible
METAR KJFX 251255Z AUTO 00000KT CLR 27/25 A3018 RMK AO2 PWINO
Pressure 30.18 in
Visibility -9999.0 miles
Clouds Clear
Heat Index 80 °F
Dew Point 76 °F
Humidity 95%
Rainfall 0.00 in
Snow Depth Not available.
6:17 AM 7:22 PM
Last Quarter, 46% visible
METAR KJFX 251255Z AUTO 00000KT CLR 27/25 A3018 RMK AO2 PWINO

10-Day Weather Forecast

Almanac

Astronomy

Aug. 25, 2016 Rise Set
Actual Time
Civil Twilight
Nautical Twilight
Astronomical Twilight
Moon
Length of Visible Light
Length of Day
Tomorrow will be .
, % of the Moon is Illuminated

Today's Extremes

State Highs State Lows

Community

WunderPhotos

Upload Photos

1,934,842 photos uploaded!

WunderBlog® & News

Nearby

Air Quality

  Air Quality AQ Index Pollutant
Not available.

Snow Depth

Station Depth Elevation

Earthquake Activity

City Distance Mag. Time & Date
Minimum magnitude displayed is 2.5.

Coastal Water Temperatures

Place Temperature

Stations

Nearby Weather Stations

Station Location Temp. Windchill Dew Point Humidity Wind Precip. Elev Updated Type
                   

Watches & Warnings

There are currently no watches in effect.